Time;durP1;ratioP1;P1;durP2;ratioP2;P2;SDS_P1;SDS_P2;PMS_P1;PMS_P2;Temp;Humidity;BMP_temperature;BMP_pressure;BME280_temperature;BME280_humidity;BME280_pressure;Samples;Min_cycle;Max_cycle;Signal;HPM_P1;HPM_P2
2024/01/09 00:00:54;;;;;;;4.80;2.88;;;-2.10;94.20;;;;;;5079024;28;20481;-81
2024/01/09 00:03:19;;;;;;;5.22;3.10;;;-2.10;94.20;;;;;;5077553;28;20028;-81
2024/01/09 00:05:45;;;;;;;4.22;2.67;;;-2.10;94.10;;;;;;5073653;28;20031;-81
2024/01/09 00:08:11;;;;;;;5.50;3.28;;;-2.10;94.10;;;;;;5055461;28;20029;-81
2024/01/09 00:10:37;;;;;;;6.03;2.90;;;-2.10;94.10;;;;;;5054248;28;20033;-82
2024/01/09 00:13:04;;;;;;;3.23;2.27;;;-2.10;94.20;;;;;;5040656;28;20031;-81
2024/01/09 00:15:30;;;;;;;4.50;2.97;;;-2.20;94.10;;;;;;5058543;28;20021;-81
2024/01/09 00:17:57;;;;;;;4.97;2.80;;;-2.20;94.10;;;;;;5056832;28;20025;-81
2024/01/09 00:20:23;;;;;;;8.10;2.85;;;-2.20;94.10;;;;;;5073989;28;20029;-82
2024/01/09 00:22:48;;;;;;;5.87;2.77;;;-2.20;94.10;;;;;;5040621;28;20031;-82
2024/01/09 00:25:18;;;;;;;5.78;2.95;;;-2.30;94.20;;;;;;5051360;28;20116;-82
2024/01/09 00:27:44;;;;;;;6.23;2.90;;;-2.20;94.20;;;;;;5056722;28;20029;-82
2024/01/09 00:30:11;;;;;;;5.88;2.88;;;-2.20;94.10;;;;;;5064199;28;20027;-82
2024/01/09 00:32:37;;;;;;;4.37;2.23;;;-2.30;94.10;;;;;;5074969;28;20541;-82
2024/01/09 00:35:05;;;;;;;3.50;2.17;;;-2.20;94.20;;;;;;5056686;28;20119;-82
2024/01/09 00:37:31;;;;;;;4.72;2.60;;;-2.20;94.30;;;;;;5075335;28;20031;-80
2024/01/09 00:39:57;;;;;;;4.05;2.58;;;-2.20;94.20;;;;;;5073318;28;20103;-79
2024/01/09 00:42:22;;;;;;;4.78;2.97;;;-2.20;94.20;;;;;;5073360;28;20090;-81
2024/01/09 00:44:48;;;;;;;4.40;2.83;;;-2.20;94.30;;;;;;5056679;28;20028;-80
2024/01/09 00:47:14;;;;;;;4.90;2.72;;;-2.20;94.20;;;;;;5090046;28;20048;-81
2024/01/09 00:49:40;;;;;;;3.70;2.67;;;-2.30;94.20;;;;;;5039096;28;20060;-81
2024/01/09 00:52:05;;;;;;;5.57;2.53;;;-2.30;94.20;;;;;;5054433;28;20021;-80
2024/01/09 00:54:31;;;;;;;4.75;2.35;;;-2.30;94.20;;;;;;5074037;28;20068;-81
2024/01/09 00:56:57;;;;;;;5.93;2.83;;;-2.30;94.20;;;;;;5073637;28;20488;-81
2024/01/09 00:59:22;;;;;;;4.53;2.47;;;-2.30;94.20;;;;;;5054406;28;20086;-81
2024/01/09 01:01:50;;;;;;;4.85;2.58;;;-2.40;94.20;;;;;;5045007;28;20029;-81
2024/01/09 01:04:18;;;;;;;5.03;2.80;;;-2.40;94.20;;;;;;5097972;28;20017;-81
2024/01/09 01:06:45;;;;;;;5.00;2.53;;;-2.40;94.20;;;;;;5081977;28;20005;-81
2024/01/09 01:09:12;;;;;;;5.40;2.73;;;-2.40;94.20;;;;;;5061244;28;20024;-82
2024/01/09 01:11:38;;;;;;;6.37;2.47;;;-2.50;94.20;;;;;;5073444;28;20032;-82
2024/01/09 01:14:03;;;;;;;6.43;3.10;;;-2.40;94.30;;;;;;5037986;28;20037;-82
2024/01/09 01:16:30;;;;;;;4.80;2.40;;;-2.50;94.30;;;;;;5055934;28;20078;-80
2024/01/09 01:18:56;;;;;;;5.45;2.40;;;-2.50;94.30;;;;;;5052592;28;20159;-81
2024/01/09 01:21:22;;;;;;;3.30;2.20;;;-2.50;94.40;;;;;;5048738;28;20119;-81
2024/01/09 01:23:48;;;;;;;4.70;2.70;;;-2.50;94.40;;;;;;5072934;28;20032;-80
2024/01/09 01:26:14;;;;;;;4.23;2.67;;;-2.50;94.40;;;;;;5072479;28;20025;-80
2024/01/09 01:28:40;;;;;;;3.67;2.60;;;-2.50;94.40;;;;;;5056345;28;20025;-80
2024/01/09 01:31:06;;;;;;;6.50;2.50;;;-2.40;94.40;;;;;;5072564;28;20025;-81
2024/01/09 01:33:31;;;;;;;4.70;2.53;;;-2.50;94.40;;;;;;5038805;28;20039;-81
2024/01/09 01:35:57;;;;;;;5.95;3.00;;;-2.50;94.40;;;;;;5058870;28;20060;-81
2024/01/09 01:38:23;;;;;;;4.55;2.30;;;-2.50;94.50;;;;;;5072104;28;20064;-81
2024/01/09 01:40:48;;;;;;;3.77;2.30;;;-2.50;94.60;;;;;;5056134;28;20033;-81
2024/01/09 01:43:14;;;;;;;4.30;2.40;;;-2.50;94.60;;;;;;5055311;28;20033;-81
2024/01/09 01:45:40;;;;;;;4.67;2.67;;;-2.50;94.70;;;;;;5073135;28;20146;-81
2024/01/09 01:48:06;;;;;;;4.10;2.63;;;-2.50;94.70;;;;;;5055260;28;20491;-81
2024/01/09 01:50:33;;;;;;;4.90;2.63;;;-2.50;94.70;;;;;;5070719;28;20056;-81
2024/01/09 01:53:04;;;;;;;4.77;2.30;;;-2.50;95.00;;;;;;5057911;28;20025;-81
2024/01/09 01:55:30;;;;;;;;;;;-2.50;94.80;;;;;;5056032;28;20020;-81
2024/01/09 01:57:57;;;;;;;6.07;3.03;;;-2.50;94.80;;;;;;5059384;28;20316;-81
2024/01/09 02:00:25;;;;;;;6.22;2.95;;;-2.50;94.80;;;;;;5049871;28;20363;-81
2024/01/09 02:02:53;;;;;;;4.37;2.50;;;-2.60;94.90;;;;;;5060119;28;20021;-81
2024/01/09 02:05:21;;;;;;;4.05;2.53;;;-2.60;95.00;;;;;;5061893;28;20069;-81
2024/01/09 02:07:49;;;;;;;3.33;2.23;;;-2.60;95.00;;;;;;5067462;28;20380;-81
2024/01/09 02:10:16;;;;;;;5.43;2.90;;;-2.60;95.10;;;;;;5052621;28;20040;-82
2024/01/09 02:12:43;;;;;;;4.67;2.60;;;-2.60;95.20;;;;;;5059033;28;20051;-81
2024/01/09 02:15:09;;;;;;;3.83;2.40;;;-2.60;95.30;;;;;;5076165;28;20043;-81
2024/01/09 02:17:35;;;;;;;5.20;2.77;;;-2.60;95.30;;;;;;5086563;28;20028;-82
2024/01/09 02:20:04;;;;;;;5.63;2.73;;;-2.60;95.30;;;;;;5052396;28;20464;-81
2024/01/09 02:22:30;;;;;;;4.53;2.87;;;-2.60;95.30;;;;;;5035546;28;20033;-80
2024/01/09 02:24:56;;;;;;;5.72;3.00;;;-2.70;95.30;;;;;;5067852;28;20033;-81
2024/01/09 02:27:54;;;;;;;4.53;2.77;;;-2.60;95.30;;;;;;5070024;28;20039;-81
2024/01/09 02:30:20;;;;;;;4.03;2.53;;;-2.70;95.40;;;;;;5078186;28;20020;-81
2024/01/09 02:32:47;;;;;;;5.00;2.83;;;-2.70;95.40;;;;;;5078678;28;20036;-80
2024/01/09 02:35:12;;;;;;;4.57;2.80;;;-2.70;95.80;;;;;;5078104;28;20044;-83
2024/01/09 02:37:38;;;;;;;5.17;2.80;;;-2.70;95.50;;;;;;5045039;28;20025;-79
2024/01/09 02:40:06;;;;;;;4.72;3.00;;;-2.70;95.60;;;;;;5058235;28;20036;-81
2024/01/09 02:42:32;;;;;;;4.87;2.67;;;-2.70;95.60;;;;;;5041904;28;20029;-82
2024/01/09 02:44:57;;;;;;;5.80;3.10;;;-2.70;95.60;;;;;;5048449;28;20091;-81
2024/01/09 02:47:24;;;;;;;4.63;2.80;;;-2.70;95.70;;;;;;5074605;28;20049;-81
2024/01/09 02:49:50;;;;;;;6.07;3.37;;;-2.70;95.80;;;;;;5073511;28;20044;-81
2024/01/09 02:52:16;;;;;;;5.77;2.47;;;-2.70;95.70;;;;;;5078129;28;20392;-81
2024/01/09 02:54:42;;;;;;;6.93;3.00;;;-2.70;95.80;;;;;;5075657;28;20021;-81
2024/01/09 02:57:09;;;;;;;4.38;2.75;;;-2.70;95.80;;;;;;5043592;28;20111;-82
2024/01/09 02:59:35;;;;;;;5.30;2.73;;;-2.80;95.80;;;;;;5041265;28;20040;-82
2024/01/09 03:02:01;;;;;;;5.47;2.87;;;-2.80;95.90;;;;;;5075993;28;20357;-82
2024/01/09 03:04:26;;;;;;;6.23;3.10;;;-2.70;95.90;;;;;;5078230;28;20036;-82
2024/01/09 03:06:52;;;;;;;4.37;2.80;;;-2.80;95.90;;;;;;5079270;28;20673;-82
2024/01/09 03:09:18;;;;;;;6.00;3.30;;;-2.80;96.00;;;;;;5076245;28;20033;-82
2024/01/09 03:11:44;;;;;;;6.77;2.73;;;-2.80;96.10;;;;;;5061542;28;20035;-81
2024/01/09 03:14:11;;;;;;;5.73;3.17;;;-2.80;96.30;;;;;;5078548;28;20028;-81
2024/01/09 03:16:37;;;;;;;5.23;2.77;;;-2.80;96.30;;;;;;5077961;28;20122;-81
2024/01/09 03:19:02;;;;;;;5.40;3.17;;;-2.80;96.20;;;;;;5080170;28;20116;-81
2024/01/09 03:21:28;;;;;;;5.70;2.70;;;-2.80;96.30;;;;;;5079813;28;20076;-81
2024/01/09 03:23:54;;;;;;;6.37;3.43;;;-2.80;96.20;;;;;;5103639;28;20028;-80
2024/01/09 03:26:21;;;;;;;6.17;3.23;;;-2.80;96.30;;;;;;5084721;28;20024;-80
2024/01/09 03:28:47;;;;;;;5.83;3.03;;;-2.80;96.40;;;;;;5059360;28;20029;-81
2024/01/09 03:31:23;;;;;;;3.90;2.47;;;-2.80;96.50;;;;;;5069243;28;20098;-81
2024/01/09 03:33:50;;;;;;;8.33;4.30;;;-2.80;96.50;;;;;;5077911;28;20071;-82
2024/01/09 03:36:16;;;;;;;6.30;3.63;;;-2.90;96.50;;;;;;5078558;28;20431;-83
2024/01/09 03:38:43;;;;;;;7.30;3.27;;;-2.90;96.50;;;;;;5061923;28;20499;-82
2024/01/09 03:41:09;;;;;;;5.77;3.03;;;-2.90;96.60;;;;;;5058102;28;20029;-82
2024/01/09 03:43:35;;;;;;;5.17;3.30;;;-2.90;96.60;;;;;;5075194;28;20043;-82
2024/01/09 03:46:01;;;;;;;5.37;3.00;;;-2.90;96.60;;;;;;5058087;28;20045;-83
2024/01/09 03:48:27;;;;;;;5.80;3.43;;;-2.90;96.60;;;;;;5076616;28;20048;-82
2024/01/09 03:50:55;;;;;;;5.70;3.27;;;-2.90;96.70;;;;;;5075576;28;20031;-83
2024/01/09 03:53:21;;;;;;;6.73;2.90;;;-2.90;96.70;;;;;;5076577;28;20025;-83
2024/01/09 03:55:47;;;;;;;6.63;3.53;;;-2.90;96.70;;;;;;5058608;28;20031;-83
2024/01/09 03:58:13;;;;;;;6.03;3.40;;;-2.90;96.70;;;;;;5075235;28;20115;-83
2024/01/09 04:00:38;;;;;;;9.47;4.00;;;-3.00;96.70;;;;;;5041867;28;20028;-83
2024/01/09 04:03:05;;;;;;;6.33;3.60;;;-3.00;96.70;;;;;;5058564;28;20025;-83
2024/01/09 04:05:31;;;;;;;5.80;3.30;;;-3.00;96.70;;;;;;5075080;28;20036;-83
2024/01/09 04:07:57;;;;;;;6.77;3.33;;;-3.00;96.70;;;;;;5075546;28;20024;-83
2024/01/09 04:10:26;;;;;;;5.30;2.93;;;-3.00;96.60;;;;;;5076020;28;20028;-84
2024/01/09 04:12:51;;;;;;;5.50;3.10;;;-3.00;96.90;;;;;;5058595;28;20025;-83
2024/01/09 04:15:17;;;;;;;7.67;4.00;;;-3.10;96.90;;;;;;5058719;28;20164;-83
2024/01/09 04:17:43;;;;;;;6.30;3.57;;;-3.00;96.70;;;;;;5074834;28;20475;-83
2024/01/09 04:20:12;;;;;;;5.43;3.40;;;-3.00;96.70;;;;;;5075931;28;20345;-84
2024/01/09 04:22:38;;;;;;;6.13;3.40;;;-3.00;96.70;;;;;;5075310;28;20027;-84
2024/01/09 04:25:05;;;;;;;5.63;3.23;;;-3.00;96.70;;;;;;5059265;28;20037;-83
2024/01/09 04:27:30;;;;;;;5.83;3.57;;;-3.00;96.70;;;;;;5042581;28;20051;-84
2024/01/09 04:29:56;;;;;;;6.53;3.70;;;-3.00;96.70;;;;;;5072045;28;20009;-82
2024/01/09 04:32:22;;;;;;;7.43;3.67;;;-3.00;96.70;;;;;;5098534;28;20005;-83
2024/01/09 04:34:47;;;;;;;7.23;3.93;;;-3.00;96.60;;;;;;5080902;28;20020;-82
2024/01/09 04:37:13;;;;;;;5.70;3.47;;;-3.00;96.50;;;;;;5052145;28;20033;-83
2024/01/09 04:39:39;;;;;;;6.47;3.10;;;-3.10;96.40;;;;;;5058192;28;20017;-82
2024/01/09 04:42:05;;;;;;;5.90;3.40;;;-3.10;96.40;;;;;;5057705;28;20025;-82
2024/01/09 04:44:31;;;;;;;5.97;3.40;;;-3.10;96.40;;;;;;5057708;28;20490;-83
2024/01/09 04:46:56;;;;;;;5.80;3.77;;;-3.10;96.30;;;;;;5057791;28;20131;-83
2024/01/09 04:49:22;;;;;;;6.57;4.10;;;-3.20;96.30;;;;;;5041224;28;20023;-82
2024/01/09 04:51:47;;;;;;;7.37;3.70;;;-3.20;96.30;;;;;;5057645;28;20073;-82
2024/01/09 04:54:13;;;;;;;8.47;3.63;;;-3.20;96.40;;;;;;5074351;28;20079;-83
2024/01/09 04:56:39;;;;;;;5.30;3.33;;;-3.20;96.30;;;;;;5057801;28;20036;-83
2024/01/09 04:59:04;;;;;;;6.00;3.37;;;-3.20;96.40;;;;;;5057751;28;20089;-83
2024/01/09 05:01:30;;;;;;;6.17;3.27;;;-3.20;96.40;;;;;;5057466;28;20093;-83
2024/01/09 05:03:55;;;;;;;5.27;3.40;;;-3.20;96.30;;;;;;5074820;28;20032;-83
2024/01/09 05:06:21;;;;;;;6.17;3.37;;;-3.20;96.30;;;;;;5058912;28;20024;-83
2024/01/09 05:08:47;;;;;;;6.50;3.40;;;-3.20;96.30;;;;;;5076864;28;20395;-82
2024/01/09 05:11:13;;;;;;;6.07;3.40;;;-3.20;96.30;;;;;;5045387;28;20024;-84
2024/01/09 05:13:38;;;;;;;6.57;3.63;;;-3.30;96.30;;;;;;5063575;28;20086;-84
2024/01/09 05:16:04;;;;;;;6.47;3.73;;;-3.30;96.20;;;;;;5088699;28;20035;-83
2024/01/09 05:18:32;;;;;;;5.63;3.60;;;-3.30;96.30;;;;;;5081142;28;20021;-84
2024/01/09 05:20:57;;;;;;;8.13;3.90;;;-3.30;96.30;;;;;;5098171;28;20035;-83
2024/01/09 05:23:26;;;;;;;6.00;3.83;;;-3.30;96.30;;;;;;5095768;28;20032;-83
2024/01/09 05:25:51;;;;;;;5.97;3.43;;;-3.30;96.30;;;;;;5065097;28;20028;-84
2024/01/09 05:28:17;;;;;;;6.33;4.03;;;-3.30;96.40;;;;;;5057664;28;20040;-84
2024/01/09 05:30:43;;;;;;;7.33;3.97;;;-3.30;96.30;;;;;;5040948;28;20036;-83
2024/01/09 05:33:09;;;;;;;6.13;3.50;;;-3.30;96.30;;;;;;5057328;28;20033;-83
2024/01/09 05:35:34;;;;;;;7.03;3.47;;;-3.30;96.30;;;;;;5073824;28;20031;-83
2024/01/09 05:38:00;;;;;;;9.00;4.07;;;-3.40;96.40;;;;;;5084096;28;20039;-83
2024/01/09 05:40:26;;;;;;;7.57;4.23;;;-3.40;96.40;;;;;;5096202;28;20021;-83
2024/01/09 05:42:51;;;;;;;7.10;4.30;;;-3.40;96.30;;;;;;5053697;28;20029;-83
2024/01/09 05:45:17;;;;;;;6.70;3.90;;;-3.40;96.30;;;;;;5057630;28;20040;-82
2024/01/09 05:47:43;;;;;;;7.57;4.17;;;-3.40;96.30;;;;;;5072265;28;20056;-83
2024/01/09 05:50:09;;;;;;;8.27;4.13;;;-3.50;96.30;;;;;;5074076;28;20030;-83
2024/01/09 05:52:38;;;;;;;6.80;4.10;;;-3.50;96.40;;;;;;5055985;28;20404;-83
2024/01/09 05:55:05;;;;;;;9.00;3.80;;;-3.50;96.40;;;;;;5056133;28;20468;-83
2024/01/09 05:57:34;;;;;;;7.03;3.97;;;-3.50;96.50;;;;;;5072700;28;20036;-83
2024/01/09 06:00:03;;;;;;;8.47;4.80;;;-3.50;96.40;;;;;;5056030;28;20031;-83
2024/01/09 06:02:31;;;;;;;7.07;4.10;;;-3.50;96.40;;;;;;5072602;28;20454;-83
2024/01/09 06:04:57;;;;;;;6.70;4.17;;;-3.50;96.50;;;;;;5072069;28;20041;-82
2024/01/09 06:07:26;;;;;;;7.40;4.10;;;-3.50;96.50;;;;;;5072694;28;20430;-84
2024/01/09 06:09:51;;;;;;;7.80;4.50;;;-3.50;96.50;;;;;;5072721;28;20036;-84
2024/01/09 06:12:17;;;;;;;7.10;4.60;;;-3.50;96.50;;;;;;5056421;28;20530;-84
2024/01/09 06:14:42;;;;;;;7.23;4.47;;;-3.50;96.50;;;;;;5072384;28;20086;-83
2024/01/09 06:17:08;;;;;;;8.50;4.97;;;-3.50;96.50;;;;;;5039376;28;20043;-84
2024/01/09 06:19:35;;;;;;;6.17;3.83;;;-3.60;96.40;;;;;;5055180;28;20028;-83
2024/01/09 06:22:00;;;;;;;7.93;4.40;;;-3.50;96.40;;;;;;5055803;28;20047;-83
2024/01/09 06:24:26;;;;;;;8.73;4.83;;;-3.50;96.40;;;;;;5055712;28;20029;-83
2024/01/09 06:26:51;;;;;;;8.23;5.20;;;-3.50;96.50;;;;;;5055694;28;20438;-84
2024/01/09 06:29:17;;;;;;;8.33;4.73;;;-3.50;96.40;;;;;;5072490;28;20058;-84
2024/01/09 06:31:43;;;;;;;7.27;4.57;;;-3.50;96.40;;;;;;5039140;28;20035;-84
2024/01/09 06:34:09;;;;;;;9.03;4.60;;;-3.50;96.20;;;;;;5056360;28;20054;-84
2024/01/09 06:36:37;;;;;;;9.77;4.70;;;-3.60;96.10;;;;;;5056247;28;20123;-84
2024/01/09 06:39:03;;;;;;;7.47;4.47;;;-3.60;96.10;;;;;;5073766;28;20033;-83
2024/01/09 06:41:32;;;;;;;7.83;4.50;;;-3.60;96.10;;;;;;5074847;28;20048;-83
2024/01/09 06:43:57;;;;;;;8.30;4.67;;;-3.60;96.20;;;;;;5077242;28;20096;-83
2024/01/09 06:46:27;;;;;;;8.33;4.67;;;-3.60;96.20;;;;;;5070603;28;20048;-83
2024/01/09 06:48:56;;;;;;;8.30;4.53;;;-3.60;96.40;;;;;;5062415;28;20028;-80
2024/01/09 06:51:21;;;;;;;7.23;4.27;;;-3.60;95.90;;;;;;5062482;28;20028;-81
2024/01/09 06:53:47;;;;;;;9.23;4.90;;;-3.60;95.90;;;;;;5064131;28;20115;-83
2024/01/09 06:56:13;;;;;;;8.97;4.63;;;-3.60;96.00;;;;;;5056728;28;20430;-82
2024/01/09 06:58:39;;;;;;;10.87;5.63;;;-3.60;96.10;;;;;;5072722;28;20449;-83
2024/01/09 07:01:06;;;;;;;7.63;4.47;;;-3.60;96.20;;;;;;5039009;28;20056;-84
2024/01/09 07:03:32;;;;;;;8.73;4.40;;;-3.70;96.20;;;;;;5071491;28;20063;-83
2024/01/09 07:05:58;;;;;;;8.93;4.60;;;-3.70;96.20;;;;;;5072950;28;20067;-83
2024/01/09 07:08:24;;;;;;;10.43;4.60;;;-3.60;96.30;;;;;;5038457;28;20052;-84
2024/01/09 07:10:49;;;;;;;7.67;4.63;;;-3.60;96.30;;;;;;5039044;28;20025;-83
2024/01/09 07:13:15;;;;;;;6.83;4.23;;;-3.60;96.30;;;;;;5055342;28;20046;-84
2024/01/09 07:15:41;;;;;;;8.30;4.97;;;-3.60;96.40;;;;;;5040563;28;20037;-82
2024/01/09 07:18:07;;;;;;;7.20;4.27;;;-3.70;96.30;;;;;;5058788;28;20102;-84
2024/01/09 07:20:32;;;;;;;9.07;5.00;;;-3.70;96.30;;;;;;5075810;28;20111;-83
2024/01/09 07:23:02;;;;;;;9.23;5.43;;;-3.80;96.30;;;;;;5059257;28;20495;-83
2024/01/09 07:25:28;;;;;;;8.63;4.60;;;-3.80;96.30;;;;;;5075595;28;20082;-83
2024/01/09 07:27:54;;;;;;;8.57;4.70;;;-3.80;96.20;;;;;;5059281;28;20124;-83
2024/01/09 07:30:20;;;;;;;9.13;4.53;;;-3.80;96.20;;;;;;5058892;28;20440;-83
2024/01/09 07:32:46;;;;;;;8.40;4.67;;;-3.90;95.90;;;;;;5075357;28;20119;-83
2024/01/09 07:35:11;;;;;;;7.40;4.47;;;-3.90;96.00;;;;;;5058883;28;20056;-83
2024/01/09 07:37:37;;;;;;;10.97;5.53;;;-3.90;96.10;;;;;;5076292;28;20471;-82
2024/01/09 07:40:04;;;;;;;9.77;5.17;;;-3.90;96.20;;;;;;5058430;28;20208;-82
2024/01/09 07:42:30;;;;;;;10.20;5.37;;;-3.90;96.10;;;;;;5042635;28;20028;-82
2024/01/09 07:44:56;;;;;;;8.73;5.40;;;-3.90;96.10;;;;;;5075470;28;20115;-82
2024/01/09 07:47:23;;;;;;;12.27;5.43;;;-3.90;96.10;;;;;;5076791;28;20057;-83
2024/01/09 07:49:49;;;;;;;8.77;4.77;;;-3.90;96.00;;;;;;5076405;28;20361;-83
2024/01/09 07:52:15;;;;;;;7.90;4.53;;;-3.90;96.00;;;;;;5084316;28;20032;-83
2024/01/09 07:54:41;;;;;;;8.33;5.00;;;-3.90;96.30;;;;;;5094045;28;20054;-84
2024/01/09 07:57:07;;;;;;;9.60;5.10;;;-3.90;96.00;;;;;;5081022;28;20033;-83
2024/01/09 07:59:33;;;;;;;8.47;4.83;;;-3.90;95.80;;;;;;5077483;28;20036;-83
2024/01/09 08:02:01;;;;;;;9.83;5.13;;;-3.90;95.80;;;;;;5061049;28;20365;-84
2024/01/09 08:04:28;;;;;;;8.50;4.73;;;-3.90;95.70;;;;;;5058519;28;20123;-84
2024/01/09 08:06:54;;;;;;;7.77;4.93;;;-3.80;95.70;;;;;;5075074;28;20037;-84
2024/01/09 08:09:20;;;;;;;9.57;4.97;;;-3.90;95.70;;;;;;5058192;28;20036;-84
2024/01/09 08:11:47;;;;;;;8.57;4.97;;;-3.80;95.70;;;;;;5075082;28;20029;-84
2024/01/09 08:14:13;;;;;;;9.57;5.07;;;-3.80;95.60;;;;;;5076411;28;20054;-84
2024/01/09 08:16:40;;;;;;;8.40;4.60;;;-3.80;95.50;;;;;;5076144;28;20085;-84
2024/01/09 08:19:06;;;;;;;9.10;5.37;;;-3.80;95.40;;;;;;5075743;28;20029;-87
2024/01/09 08:21:34;;;;;;;8.27;5.07;;;-3.90;95.30;;;;;;5074772;28;20054;-84
2024/01/09 08:24:00;;;;;;;9.53;5.17;;;-3.80;95.30;;;;;;5058130;28;20037;-84
2024/01/09 08:26:25;;;;;;;10.00;5.03;;;-3.80;95.10;;;;;;5040876;28;20028;-84
2024/01/09 08:28:51;;;;;;;8.10;4.70;;;-3.80;95.10;;;;;;5058135;28;20029;-83
2024/01/09 08:31:17;;;;;;;11.53;5.23;;;-3.80;95.20;;;;;;5057791;28;20503;-83
2024/01/09 08:33:42;;;;;;;7.33;4.60;;;-3.80;94.80;;;;;;5057711;28;20033;-85
2024/01/09 08:36:08;;;;;;;10.40;5.40;;;-3.80;94.80;;;;;;5075475;28;20025;-84
2024/01/09 08:38:34;;;;;;;10.17;5.13;;;-3.80;94.90;;;;;;5074145;28;20037;-84
2024/01/09 08:41:02;;;;;;;8.50;4.50;;;-3.80;94.80;;;;;;5074262;28;20115;-84
2024/01/09 08:43:28;;;;;;;8.87;5.60;;;-3.70;94.90;;;;;;5075531;28;20028;-84
2024/01/09 08:45:54;;;;;;;9.63;5.13;;;-3.70;95.00;;;;;;5057661;28;20430;-84
2024/01/09 08:48:20;;;;;;;9.40;4.40;;;-3.60;94.70;;;;;;5074513;28;20052;-84
2024/01/09 08:50:46;;;;;;;8.70;4.87;;;-3.60;94.80;;;;;;5058168;28;20486;-85
2024/01/09 08:53:12;;;;;;;7.90;4.97;;;-3.60;94.90;;;;;;5074203;28;20017;-83
2024/01/09 08:55:37;;;;;;;8.43;4.40;;;-3.50;94.70;;;;;;5074530;28;20055;-83
2024/01/09 08:58:03;;;;;;;9.67;4.87;;;-3.50;94.80;;;;;;5057810;28;20059;-83
2024/01/09 09:00:29;;;;;;;7.90;4.57;;;-3.40;94.90;;;;;;5080864;28;20036;-82
2024/01/09 09:02:55;;;;;;;8.40;4.60;;;-3.40;94.70;;;;;;5095957;28;20028;-80
2024/01/09 09:05:20;;;;;;;7.73;4.30;;;-3.40;94.30;;;;;;5061582;28;20022;-81
2024/01/09 09:07:47;;;;;;;9.93;4.53;;;-3.40;94.20;;;;;;5078146;28;20019;-82
2024/01/09 09:10:12;;;;;;;7.13;4.27;;;-3.40;94.20;;;;;;5083937;28;20084;-82
2024/01/09 09:12:38;;;;;;;9.97;4.43;;;-3.40;94.10;;;;;;5075883;28;20029;-82
2024/01/09 09:15:04;;;;;;;9.57;5.10;;;-3.30;94.10;;;;;;5058594;28;20031;-82
2024/01/09 09:17:30;;;;;;;7.70;4.33;;;-3.30;93.70;;;;;;5086815;28;20079;-83
2024/01/09 09:19:57;;;;;;;9.73;5.03;;;-3.30;93.80;;;;;;5074976;28;20027;-83
2024/01/09 09:22:25;;;;;;;9.27;4.70;;;-3.30;93.70;;;;;;5074307;28;20075;-83
2024/01/09 09:24:52;;;;;;;8.93;4.67;;;-3.30;93.70;;;;;;5074050;28;20040;-83
2024/01/09 09:27:18;;;;;;;6.53;4.30;;;-3.30;93.50;;;;;;5041103;28;20053;-82
2024/01/09 09:29:44;;;;;;;8.07;4.87;;;-3.30;93.40;;;;;;5074363;28;20468;-83
2024/01/09 09:32:10;;;;;;;8.33;4.83;;;-3.20;93.30;;;;;;5073861;28;20028;-83
2024/01/09 09:34:40;;;;;;;5.70;3.60;;;-3.20;93.30;;;;;;5073057;28;20502;-83
2024/01/09 09:37:07;;;;;;;8.03;4.50;;;-3.20;93.30;;;;;;5073446;28;20048;-82
2024/01/09 09:39:33;;;;;;;7.33;4.33;;;-3.10;93.50;;;;;;5072757;28;20028;-82
2024/01/09 09:41:59;;;;;;;8.87;4.47;;;-3.10;93.30;;;;;;5056690;28;20425;-83
2024/01/09 09:44:26;;;;;;;7.67;4.13;;;-3.00;93.00;;;;;;5073059;28;20075;-82
2024/01/09 09:46:51;;;;;;;8.33;4.37;;;-3.00;93.10;;;;;;5072907;28;20118;-82
2024/01/09 09:49:19;;;;;;;8.57;4.63;;;-2.90;93.30;;;;;;5056046;28;20020;-81
2024/01/09 09:51:45;;;;;;;7.87;4.07;;;-2.90;93.30;;;;;;5040141;28;20029;-82
2024/01/09 09:54:12;;;;;;;7.77;4.67;;;-2.80;93.20;;;;;;5039884;28;20123;-82
2024/01/09 09:56:39;;;;;;;8.93;5.00;;;-2.80;93.10;;;;;;5073377;28;20457;-82
2024/01/09 09:59:05;;;;;;;7.37;4.40;;;-2.70;93.00;;;;;;5072855;28;20035;-82
2024/01/09 10:01:32;;;;;;;7.37;4.43;;;-2.70;92.70;;;;;;5072976;28;20033;-82
2024/01/09 10:04:47;;;;;;;8.80;4.77;;;-2.70;92.40;;;;;;5056380;28;20037;-82
2024/01/09 10:07:19;;;;;;;8.30;4.40;;;-2.70;92.00;;;;;;5069941;28;20032;-82
2024/01/09 10:09:49;;;;;;;8.40;4.23;;;-2.70;92.00;;;;;;5079248;28;20039;-82
2024/01/09 10:12:15;;;;;;;7.80;4.77;;;-2.70;92.10;;;;;;5096028;28;20116;-82
2024/01/09 10:15:07;;;;;;;7.27;3.80;;;-2.70;91.80;;;;;;5078332;28;20032;-81
2024/01/09 10:17:35;;;;;;;8.23;4.10;;;-2.70;91.80;;;;;;5084440;28;20025;-82
2024/01/09 10:20:02;;;;;;;8.27;4.03;;;-2.60;91.70;;;;;;5074474;28;20033;-82
2024/01/09 10:22:31;;;;;;;6.43;3.73;;;-2.60;91.60;;;;;;5055789;28;20033;-82
2024/01/09 10:24:57;;;;;;;6.57;3.90;;;-2.50;91.60;;;;;;5039585;28;20032;-83
2024/01/09 10:27:26;;;;;;;6.90;3.70;;;-2.50;91.40;;;;;;5055790;28;20029;-83
2024/01/09 10:29:55;;;;;;;6.37;4.03;;;-2.40;91.40;;;;;;5056116;28;20078;-82
2024/01/09 10:32:20;;;;;;;7.32;4.00;;;-2.40;91.10;;;;;;5039503;28;20035;-83
2024/01/09 10:34:46;;;;;;;5.88;3.60;;;-2.30;91.00;;;;;;5072510;28;20029;-83
2024/01/09 10:37:13;;;;;;;7.33;3.77;;;-2.30;90.90;;;;;;5056005;28;20024;-83
2024/01/09 10:39:39;;;;;;;6.43;3.93;;;-2.30;90.60;;;;;;5055831;28;20029;-83
2024/01/09 10:42:09;;;;;;;7.03;3.42;;;-2.20;90.60;;;;;;5073703;28;20039;-82
2024/01/09 10:44:38;;;;;;;5.77;3.50;;;-2.20;90.70;;;;;;5072206;28;20037;-83
2024/01/09 10:47:04;;;;;;;7.07;3.85;;;-2.10;90.60;;;;;;5072291;28;20048;-83
2024/01/09 10:49:31;;;;;;;8.10;4.30;;;-2.10;90.40;;;;;;5073365;28;20033;-83
2024/01/09 10:52:00;;;;;;;6.22;3.65;;;-2.10;90.00;;;;;;5059643;28;20032;-83
2024/01/09 10:54:27;;;;;;;7.30;4.18;;;-2.10;90.00;;;;;;5076426;28;20059;-83
2024/01/09 10:56:57;;;;;;;7.55;3.67;;;-2.00;90.20;;;;;;5076034;28;20489;-83
2024/01/09 10:59:24;;;;;;;6.63;3.72;;;-1.90;90.30;;;;;;5059666;28;20017;-83
2024/01/09 11:01:49;;;;;;;6.63;3.55;;;-1.80;90.20;;;;;;5077399;28;20372;-84
2024/01/09 11:04:15;;;;;;;7.30;3.90;;;-1.80;90.40;;;;;;5075951;28;20033;-83
2024/01/09 11:06:42;;;;;;;5.70;3.25;;;-1.70;90.30;;;;;;5076544;28;20025;-83
2024/01/09 11:09:11;;;;;;;5.90;3.22;;;-1.60;90.20;;;;;;5077307;28;20025;-84
2024/01/09 11:11:38;;;;;;;6.00;3.38;;;-1.50;90.00;;;;;;5076112;28;20087;-83
2024/01/09 11:14:07;;;;;;;5.55;3.58;;;-1.50;88.20;;;;;;5059755;28;20186;-83
2024/01/09 11:16:40;;;;;;;6.40;4.22;;;-1.50;88.70;;;;;;5076573;28;20021;-83
2024/01/09 11:19:07;;;;;;;6.45;3.40;;;-1.40;89.10;;;;;;5080164;28;20052;-84
2024/01/09 11:21:33;;;;;;;6.55;3.78;;;-1.40;89.30;;;;;;5098999;28;20016;-83
2024/01/09 11:24:02;;;;;;;6.53;3.40;;;-1.40;89.40;;;;;;5090081;28;20036;-84
2024/01/09 11:26:34;;;;;;;6.07;3.42;;;-1.20;89.70;;;;;;5076126;28;20021;-83
2024/01/09 11:28:59;;;;;;;5.07;3.40;;;-1.20;89.20;;;;;;5077046;28;20477;-83
2024/01/09 11:31:27;;;;;;;6.15;3.40;;;-1.10;88.90;;;;;;5075624;28;20039;-84
2024/01/09 11:33:57;;;;;;;7.88;3.45;;;-1.10;88.50;;;;;;5077088;28;20177;-85
2024/01/09 11:36:33;;;;;;;7.40;3.72;;;-1.00;88.90;;;;;;5075457;28;20286;-88
2024/01/09 11:39:04;;;;;;;7.45;3.45;;;-1.00;89.10;;;;;;5075656;28;20029;-85
2024/01/09 11:41:56;;;;;;;4.57;3.05;;;-0.90;89.00;;;;;;5076323;28;20021;-84
2024/01/09 11:44:21;;;;;;;5.32;3.40;;;-0.90;88.40;;;;;;5055574;28;20133;-84
2024/01/09 11:46:47;;;;;;;6.25;3.67;;;-0.80;88.20;;;;;;5058529;28;20512;-84
2024/01/09 11:49:13;;;;;;;7.10;3.50;;;-0.80;88.30;;;;;;5076627;28;20082;-84
2024/01/09 11:51:39;;;;;;;5.30;3.20;;;-0.70;88.40;;;;;;5058309;28;20028;-84
2024/01/09 11:54:08;;;;;;;5.80;3.47;;;-0.70;87.90;;;;;;5041882;28;20463;-85
2024/01/09 11:56:34;;;;;;;8.65;3.80;;;-0.70;87.30;;;;;;5075427;28;20024;-85
2024/01/09 11:59:00;;;;;;;6.70;4.38;;;-0.60;87.80;;;;;;5074640;28;20104;-84
2024/01/09 12:01:26;;;;;;;5.10;3.42;;;-0.60;88.10;;;;;;5057390;28;20082;-84
2024/01/09 12:03:57;;;;;;;6.68;3.70;;;-0.50;87.80;;;;;;5057875;28;20032;-84
2024/01/09 12:06:30;;;;;;;6.82;3.63;;;-0.50;87.70;;;;;;5075864;28;20021;-84
2024/01/09 12:08:56;;;;;;;5.55;3.13;;;-0.40;86.90;;;;;;5076230;28;20021;-84
2024/01/09 12:11:22;;;;;;;5.63;3.40;;;-0.40;86.70;;;;;;5075345;28;20029;-85
2024/01/09 12:13:57;;;;;;;6.47;3.10;;;-0.40;85.90;;;;;;5074663;28;20028;-84
2024/01/09 12:16:24;;;;;;;4.88;2.97;;;-0.40;86.20;;;;;;5075103;28;20025;-84
2024/01/09 12:18:52;;;;;;;6.43;3.40;;;-0.40;86.10;;;;;;5075379;28;20025;-84
2024/01/09 12:21:19;;;;;;;5.97;3.45;;;-0.30;85.20;;;;;;5074578;28;20039;-82
2024/01/09 12:23:45;;;;;;;5.45;3.35;;;-0.30;85.40;;;;;;5075006;28;20472;-84
2024/01/09 12:26:13;;;;;;;6.05;3.35;;;-0.30;85.10;;;;;;5075646;28;20025;-84
2024/01/09 12:28:39;;;;;;;6.90;3.08;;;-0.30;85.30;;;;;;5059374;28;20028;-84
2024/01/09 12:31:08;;;;;;;6.00;3.60;;;-0.20;85.20;;;;;;5072350;28;20028;-84
2024/01/09 12:33:34;;;;;;;5.57;3.17;;;-0.20;84.80;;;;;;5099071;28;20020;-83
2024/01/09 12:36:00;;;;;;;5.70;3.30;;;-0.10;85.20;;;;;;5063789;28;20029;-84
2024/01/09 12:38:26;;;;;;;5.82;3.28;;;-0.10;83.70;;;;;;5085236;28;20035;-84
2024/01/09 12:41:04;;;;;;;5.05;3.13;;;-0.10;82.80;;;;;;5077057;28;20028;-84
2024/01/09 12:43:30;;;;;;;6.65;3.47;;;-0.10;82.40;;;;;;5058193;28;20108;-84
2024/01/09 12:45:57;;;;;;;5.45;3.20;;;-0.10;82.40;;;;;;5074349;28;20033;-84